createdAt,value
2022-08-15T00:00:29.205Z,5.07
2022-08-15T00:03:01.042Z,4.67
2022-08-15T00:05:36.844Z,4.23
2022-08-15T00:08:49.813Z,4.30
2022-08-15T00:11:01.570Z,3.77
2022-08-15T00:13:31.001Z,4.13
2022-08-15T00:16:09.137Z,4.60
2022-08-15T00:18:36.658Z,4.37
2022-08-15T00:21:05.238Z,4.43
2022-08-15T00:23:38.093Z,4.20
2022-08-15T00:26:29.002Z,4.27
2022-08-15T00:28:56.418Z,4.77
2022-08-15T00:31:40.887Z,4.57
2022-08-15T00:34:38.904Z,4.33
2022-08-15T00:37:00.521Z,5.27
2022-08-15T00:39:32.901Z,4.13
2022-08-15T00:42:03.615Z,4.37
2022-08-15T00:44:53.176Z,4.73
2022-08-15T00:47:39.011Z,5.03
2022-08-15T00:50:33.553Z,5.40
2022-08-15T00:52:57.225Z,4.67
2022-08-15T00:55:27.672Z,4.40
2022-08-15T00:58:00.012Z,4.83
2022-08-15T01:00:37.621Z,5.40
2022-08-15T01:03:14.825Z,5.70
2022-08-15T01:05:51.337Z,5.57
2022-08-15T01:08:30.207Z,5.17
2022-08-15T01:11:22.849Z,6.30
2022-08-15T01:14:04.493Z,4.27
2022-08-15T01:16:42.692Z,4.90
2022-08-15T01:19:21.514Z,4.50
2022-08-15T01:22:12.298Z,5.03
2022-08-15T01:25:15.493Z,4.33
2022-08-15T01:27:53.384Z,3.90
2022-08-15T01:31:01.216Z,5.00
2022-08-15T01:33:14.854Z,6.40
2022-08-15T01:35:43.926Z,6.47
2022-08-15T01:38:37.641Z,6.20
2022-08-15T01:41:36.622Z,5.70
2022-08-15T01:44:31.277Z,5.30
2022-08-15T01:47:02.357Z,5.00
2022-08-15T01:49:58.745Z,5.80
2022-08-15T01:52:58.097Z,5.40
2022-08-15T01:55:33.996Z,6.10
2022-08-15T01:58:12.170Z,4.60
2022-08-15T02:00:53.695Z,5.13
2022-08-15T02:03:21.890Z,4.80
2022-08-15T02:05:57.129Z,5.43
2022-08-15T02:08:35.967Z,4.97
2022-08-15T02:11:15.967Z,5.47
2022-08-15T02:13:45.933Z,4.70
2022-08-15T02:16:14.319Z,7.50
2022-08-15T02:18:48.230Z,6.33
2022-08-15T02:21:21.071Z,5.20
2022-08-15T02:24:20.005Z,5.83
2022-08-15T02:26:52.802Z,5.03
2022-08-15T02:29:26.240Z,5.73
2022-08-15T02:31:56.812Z,5.43
2022-08-15T02:34:45.418Z,5.00
2022-08-15T02:37:17.045Z,5.10
2022-08-15T02:39:44.305Z,6.17
2022-08-15T02:42:12.907Z,4.80
2022-08-15T02:44:41.858Z,5.23
2022-08-15T02:47:10.029Z,4.77
2022-08-15T02:49:48.005Z,4.90
2022-08-15T02:52:21.000Z,5.20
2022-08-15T02:54:58.922Z,5.20
2022-08-15T02:57:30.137Z,5.03
2022-08-15T02:59:57.583Z,5.53
2022-08-15T03:02:31.668Z,5.40
2022-08-15T03:05:01.538Z,4.60
2022-08-15T03:07:29.981Z,6.47
2022-08-15T03:09:57.305Z,5.47
2022-08-15T03:12:31.061Z,4.93
2022-08-15T03:15:06.568Z,5.57
2022-08-15T03:17:36.471Z,4.87
2022-08-15T03:20:13.390Z,5.17
2022-08-15T03:22:47.984Z,6.80
2022-08-15T03:25:29.202Z,5.03
2022-08-15T03:27:59.141Z,5.43
2022-08-15T03:30:26.142Z,6.63
2022-08-15T03:32:57.375Z,6.17
2022-08-15T03:35:30.550Z,5.50
2022-08-15T03:38:05.971Z,5.47
2022-08-15T03:40:39.024Z,5.60
2022-08-15T03:43:13.228Z,5.30
2022-08-15T03:45:58.994Z,5.17
2022-08-15T03:48:34.640Z,5.87
2022-08-15T03:51:04.631Z,5.60
2022-08-15T03:53:38.364Z,5.60
2022-08-15T03:56:18.054Z,4.90
2022-08-15T03:58:46.043Z,5.57
2022-08-15T04:01:18.529Z,5.13
2022-08-15T04:03:50.612Z,4.90
2022-08-15T04:06:28.144Z,6.03
2022-08-15T04:09:04.629Z,5.90
2022-08-15T04:11:45.089Z,5.30
2022-08-15T04:14:33.203Z,4.60
2022-08-15T04:17:14.850Z,5.07
2022-08-15T04:19:55.668Z,5.23
2022-08-15T04:22:38.272Z,5.60
2022-08-15T04:25:37.935Z,5.07
2022-08-15T04:28:39.056Z,5.53
2022-08-15T04:31:07.151Z,5.13
2022-08-15T04:34:22.545Z,6.03
2022-08-15T04:36:30.375Z,7.10
2022-08-15T04:38:58.827Z,6.13
2022-08-15T04:41:33.784Z,6.63
2022-08-15T04:44:05.612Z,5.37
2022-08-15T04:46:35.873Z,5.40
2022-08-15T04:49:08.049Z,5.67
2022-08-15T04:51:38.968Z,5.50
2022-08-15T04:54:09.097Z,5.63
2022-08-15T04:56:59.700Z,5.87
2022-08-15T04:59:34.102Z,4.60
2022-08-15T05:02:49.700Z,4.33
2022-08-15T05:05:00.353Z,5.37
2022-08-15T05:07:28.143Z,6.20
2022-08-15T05:10:00.061Z,6.63
2022-08-15T05:12:36.783Z,10.63
2022-08-15T05:15:05.614Z,6.37
2022-08-15T05:17:56.519Z,6.33
2022-08-15T05:20:23.691Z,7.73
2022-08-15T05:23:03.274Z,6.00
2022-08-15T05:25:41.921Z,6.63
2022-08-15T05:28:31.616Z,4.63
2022-08-15T05:31:14.388Z,9.43
2022-08-15T05:33:56.985Z,5.47
2022-08-15T05:36:34.357Z,7.67
2022-08-15T05:39:15.447Z,8.83
2022-08-15T05:41:54.377Z,8.93
2022-08-15T05:44:45.089Z,6.20
2022-08-15T05:47:52.737Z,8.40
2022-08-15T05:51:01.961Z,5.93
2022-08-15T05:54:03.753Z,5.60
2022-08-15T05:57:05.817Z,5.63
2022-08-15T05:59:43.757Z,5.27
2022-08-15T06:02:37.155Z,5.30
2022-08-15T06:05:46.439Z,6.40
2022-08-15T06:08:48.450Z,6.00
2022-08-15T06:11:15.579Z,5.63
2022-08-15T06:13:59.932Z,5.70
2022-08-15T06:16:56.436Z,6.07
2022-08-15T06:19:34.747Z,5.70
2022-08-15T06:22:26.165Z,6.00
2022-08-15T06:25:06.570Z,6.93
2022-08-15T06:27:49.936Z,6.87
2022-08-15T06:30:46.069Z,5.40
2022-08-15T06:33:55.779Z,6.53
2022-08-15T06:36:22.361Z,6.80
2022-08-15T06:39:02.449Z,6.07
2022-08-15T06:41:49.194Z,5.23
2022-08-15T06:44:30.665Z,5.27
2022-08-15T06:47:08.249Z,5.60
2022-08-15T06:49:41.879Z,6.10
2022-08-15T06:52:16.426Z,6.67
2022-08-15T06:54:50.547Z,7.87
2022-08-15T06:57:48.474Z,6.70
2022-08-15T07:00:38.248Z,6.37
2022-08-15T07:03:33.347Z,5.20
2022-08-15T07:06:14.702Z,6.33
2022-08-15T07:08:55.498Z,5.20
2022-08-15T07:11:55.202Z,4.97
2022-08-15T07:14:51.129Z,6.13
2022-08-15T07:17:33.178Z,6.20
2022-08-15T07:20:35.152Z,5.37
2022-08-15T07:22:53.652Z,5.67
2022-08-15T07:25:29.865Z,5.43
2022-08-15T07:28:04.237Z,6.10
2022-08-15T07:31:01.644Z,5.97
2022-08-15T07:33:43.807Z,5.83
2022-08-15T07:36:39.329Z,6.67
2022-08-15T07:39:33.649Z,6.17
2022-08-15T07:42:29.121Z,5.80
2022-08-15T07:45:32.717Z,5.80
2022-08-15T07:48:13.294Z,5.67
2022-08-15T07:50:47.222Z,4.97
2022-08-15T07:53:22.164Z,5.97
2022-08-15T07:59:27.828Z,5.83
2022-08-15T08:02:38.004Z,6.63
2022-08-15T08:05:11.822Z,9.47
2022-08-15T08:07:52.078Z,4.57
2022-08-15T08:10:35.447Z,5.63
2022-08-15T08:13:20.054Z,3.77
2022-08-15T08:16:08.957Z,5.63
2022-08-15T08:18:43.634Z,5.03
2022-08-15T08:21:21.988Z,3.65
2022-08-15T08:24:09.081Z,4.10
2022-08-15T08:26:39.742Z,4.32
2022-08-15T08:29:34.112Z,4.95
2022-08-15T08:32:29.245Z,5.15
2022-08-15T08:35:18.461Z,4.55
2022-08-15T08:38:02.005Z,4.65
2022-08-15T08:41:34.708Z,3.17
2022-08-15T08:44:23.372Z,5.38
2022-08-15T08:47:18.131Z,3.83
2022-08-15T08:50:32.173Z,7.43
2022-08-15T08:53:15.033Z,3.35
2022-08-15T08:55:50.528Z,3.40
2022-08-15T08:58:44.420Z,4.63
2022-08-15T09:01:16.973Z,3.60
2022-08-15T09:03:51.117Z,3.67
2022-08-15T09:06:26.751Z,3.40
2022-08-15T09:09:03.633Z,3.25
2022-08-15T09:11:45.963Z,3.22
2022-08-15T09:14:32.597Z,4.00
2022-08-15T09:17:30.931Z,3.65
2022-08-15T09:20:19.582Z,4.13
2022-08-15T09:22:49.363Z,4.07
2022-08-15T09:25:29.827Z,5.10
2022-08-15T09:28:29.373Z,3.63
2022-08-15T09:31:15.045Z,3.08
2022-08-15T09:34:30.966Z,3.13
2022-08-15T09:37:25.744Z,5.00
2022-08-15T09:40:58.930Z,5.05
2022-08-15T09:43:49.061Z,5.53
2022-08-15T09:46:47.287Z,4.47
2022-08-15T09:49:44.801Z,6.10
2022-08-15T09:52:44.316Z,5.10
2022-08-15T09:55:35.564Z,3.83
2022-08-15T09:58:21.478Z,3.60
2022-08-15T10:00:56.949Z,3.10
2022-08-15T10:03:47.777Z,8.93
2022-08-15T10:06:32.714Z,3.10
2022-08-15T10:09:10.609Z,3.80
2022-08-15T10:11:45.778Z,3.17
2022-08-15T10:14:22.004Z,4.87
2022-08-15T10:17:01.203Z,4.00
2022-08-15T10:20:01.201Z,3.33
2022-08-15T10:22:44.875Z,4.67
2022-08-15T10:25:48.462Z,3.33
2022-08-15T10:28:36.481Z,3.60
2022-08-15T10:31:15.706Z,3.07
2022-08-15T10:33:58.225Z,2.87
2022-08-15T10:36:32.999Z,3.27
2022-08-15T10:39:20.339Z,3.80
2022-08-15T10:42:22.951Z,3.07
2022-08-15T10:45:22.418Z,3.60
2022-08-15T10:48:43.863Z,3.37
2022-08-15T10:51:27.300Z,3.38
2022-08-15T10:54:18.787Z,4.05
2022-08-15T10:57:04.484Z,5.38
2022-08-15T10:59:45.470Z,2.58
2022-08-15T11:02:36.715Z,3.42
2022-08-15T11:05:11.990Z,3.97
2022-08-15T11:08:00.975Z,3.28
2022-08-15T11:10:34.217Z,5.78
2022-08-15T11:13:14.363Z,4.00
2022-08-15T11:16:00.123Z,5.85
2022-08-15T11:18:58.124Z,2.95
2022-08-15T11:21:48.235Z,3.83
2022-08-15T11:24:42.288Z,3.25
2022-08-15T11:27:23.957Z,3.75
2022-08-15T11:29:54.478Z,4.50
2022-08-15T11:32:33.325Z,2.65
2022-08-15T11:35:09.024Z,5.05
2022-08-15T11:37:43.085Z,3.17
2022-08-15T11:40:26.674Z,3.33
2022-08-15T11:42:58.274Z,4.00
2022-08-15T11:45:49.599Z,3.28
2022-08-15T11:48:35.589Z,5.30
2022-08-15T11:51:23.075Z,2.80
2022-08-15T11:54:16.281Z,3.17
2022-08-15T11:57:17.430Z,2.75
2022-08-15T12:00:03.164Z,4.88
2022-08-15T12:02:34.438Z,7.35
2022-08-15T12:05:42.613Z,3.13
2022-08-15T12:08:21.171Z,4.38
2022-08-15T12:10:55.116Z,4.07
2022-08-15T12:13:34.042Z,3.65
2022-08-15T12:16:10.759Z,3.95
2022-08-15T12:18:51.775Z,2.85
2022-08-15T12:21:24.302Z,3.75
2022-08-15T12:23:57.658Z,2.35
2022-08-15T12:26:39.530Z,2.70
2022-08-15T12:29:15.815Z,3.28
2022-08-15T12:31:46.645Z,4.43
2022-08-15T12:34:27.239Z,2.85
2022-08-15T12:37:02.098Z,3.80
2022-08-15T12:39:34.458Z,3.42
2022-08-15T12:42:47.356Z,2.72
2022-08-15T12:44:51.652Z,3.67
2022-08-15T12:47:31.452Z,2.38
2022-08-15T12:50:00.404Z,3.05
2022-08-15T12:52:28.192Z,2.38
2022-08-15T12:54:58.020Z,2.42
2022-08-15T12:57:52.322Z,2.92
2022-08-15T13:00:35.477Z,3.92
2022-08-15T13:03:28.134Z,2.03
2022-08-15T13:06:32.357Z,2.28
2022-08-15T13:08:53.600Z,2.95
2022-08-15T13:11:25.407Z,4.10
2022-08-15T13:13:52.948Z,2.38
2022-08-15T13:16:55.939Z,1.65
2022-08-15T13:19:23.844Z,3.88
2022-08-15T13:22:32.225Z,3.40
2022-08-15T13:25:01.533Z,2.88
2022-08-15T13:27:30.632Z,3.78
2022-08-15T13:29:57.705Z,2.10
2022-08-15T13:32:28.182Z,1.52
2022-08-15T13:34:55.023Z,2.58
2022-08-15T13:38:00.623Z,2.45
2022-08-15T13:40:28.620Z,1.90
2022-08-15T13:43:02.455Z,3.80
2022-08-15T13:45:56.444Z,2.60
2022-08-15T13:48:26.163Z,3.35
2022-08-15T13:51:07.452Z,2.88
2022-08-15T13:54:02.697Z,2.13
2022-08-15T13:56:30.665Z,2.53
2022-08-15T13:59:00.393Z,3.03
2022-08-15T14:01:34.485Z,2.53
2022-08-15T14:04:06.278Z,4.43
2022-08-15T14:06:35.589Z,2.67
2022-08-15T14:09:16.704Z,4.45
2022-08-15T14:11:55.165Z,4.60
2022-08-15T14:14:36.567Z,2.30
2022-08-15T14:17:08.169Z,4.85
2022-08-15T14:20:01.264Z,3.75
2022-08-15T14:22:27.438Z,2.05
2022-08-15T14:25:14.916Z,3.17
2022-08-15T14:30:34.712Z,2.30
2022-08-15T14:33:02.280Z,3.35
2022-08-15T14:35:42.579Z,2.58
2022-08-15T14:38:12.348Z,4.43
2022-08-15T14:40:41.645Z,4.05
2022-08-15T14:43:17.734Z,2.75
2022-08-15T14:46:31.135Z,2.65
2022-08-15T14:48:47.709Z,2.30
2022-08-15T14:52:16.497Z,2.13
2022-08-15T14:54:43.854Z,2.80
2022-08-15T14:57:06.526Z,2.30
2022-08-15T14:59:56.037Z,2.45
2022-08-15T15:02:25.678Z,2.17
2022-08-15T15:04:58.022Z,3.58
2022-08-15T15:07:57.461Z,2.45
2022-08-15T15:10:25.744Z,3.53
2022-08-15T15:12:56.612Z,2.78
2022-08-15T15:15:25.194Z,2.05
2022-08-15T15:17:53.042Z,2.83
2022-08-15T15:20:25.480Z,2.15
2022-08-15T15:23:13.273Z,2.25
2022-08-15T15:25:43.229Z,2.22
2022-08-15T15:28:35.531Z,2.03
2022-08-15T15:31:00.611Z,2.08
2022-08-15T15:33:31.530Z,2.30
2022-08-15T15:36:01.597Z,4.85
2022-08-15T15:38:36.382Z,2.63
2022-08-15T15:41:05.106Z,2.00
2022-08-15T15:43:37.962Z,2.38
2022-08-15T15:46:08.623Z,3.13
2022-08-15T15:48:45.565Z,2.80
2022-08-15T15:51:12.702Z,3.67
2022-08-15T15:53:42.474Z,5.00
2022-08-15T15:56:36.878Z,2.75
2022-08-15T15:59:01.576Z,3.78
2022-08-15T16:02:45.257Z,2.88
2022-08-15T16:04:19.630Z,3.83
2022-08-15T16:07:01.805Z,2.42
2022-08-15T16:09:32.246Z,2.88
2022-08-15T16:12:58.446Z,3.08
2022-08-15T16:15:42.943Z,2.40
2022-08-15T16:18:26.396Z,2.33
2022-08-15T16:21:03.658Z,2.92
2022-08-15T16:23:47.981Z,2.75
2022-08-15T16:26:36.339Z,2.45
2022-08-15T16:29:33.577Z,2.22
2022-08-15T16:32:10.237Z,1.92
2022-08-15T16:34:49.415Z,3.10
2022-08-15T16:37:42.446Z,2.65
2022-08-15T16:40:58.888Z,1.67
2022-08-15T16:43:23.211Z,2.22
2022-08-15T16:46:41.058Z,4.93
2022-08-15T16:49:31.303Z,5.18
2022-08-15T16:52:17.433Z,2.80
2022-08-15T16:55:07.346Z,2.60
2022-08-15T16:57:58.052Z,3.30
2022-08-15T17:00:44.834Z,6.35
2022-08-15T17:03:34.680Z,2.60
2022-08-15T17:06:14.649Z,3.95
2022-08-15T17:08:56.372Z,2.92
2022-08-15T17:12:02.282Z,2.50
2022-08-15T17:14:52.575Z,4.32
2022-08-15T17:17:32.396Z,1.70
2022-08-15T17:20:01.339Z,2.58
2022-08-15T17:22:40.281Z,2.17
2022-08-15T17:25:18.717Z,2.95
2022-08-15T17:28:01.196Z,1.75
2022-08-15T17:30:57.075Z,2.25
2022-08-15T17:33:42.712Z,2.15
2022-08-15T17:36:15.936Z,2.90
2022-08-15T17:38:57.157Z,2.85
2022-08-15T17:41:30.394Z,2.35
2022-08-15T17:44:15.389Z,2.20
2022-08-15T17:47:05.735Z,3.28
2022-08-15T17:49:53.259Z,2.35
2022-08-15T17:52:36.262Z,3.97
2022-08-15T17:55:14.439Z,2.30
2022-08-15T17:58:08.874Z,3.17
2022-08-15T18:00:38.338Z,4.03
2022-08-15T18:03:10.837Z,4.68
2022-08-15T18:06:03.754Z,5.03
2022-08-15T18:08:33.406Z,1.80
2022-08-15T18:11:02.430Z,4.70
2022-08-15T18:13:39.629Z,2.90
2022-08-15T18:16:18.871Z,2.20
2022-08-15T18:18:47.443Z,3.28
2022-08-15T18:21:37.661Z,2.80
2022-08-15T18:24:52.525Z,3.08
2022-08-15T18:27:54.709Z,3.17
2022-08-15T18:30:32.102Z,3.63
2022-08-15T18:33:07.753Z,2.88
2022-08-15T18:35:41.147Z,3.13
2022-08-15T18:38:16.481Z,2.63
2022-08-15T18:41:05.469Z,2.70
2022-08-15T18:43:53.462Z,4.73
2022-08-15T18:46:31.105Z,2.70
2022-08-15T18:49:16.406Z,4.33
2022-08-15T18:51:55.279Z,4.50
2022-08-15T18:54:48.808Z,4.37
2022-08-15T18:57:52.642Z,3.10
2022-08-15T19:00:32.886Z,3.33
2022-08-15T19:03:07.339Z,3.83
2022-08-15T19:05:43.384Z,3.77
2022-08-15T19:08:14.716Z,4.50
2022-08-15T19:10:57.986Z,3.03
2022-08-15T19:13:42.913Z,3.90
2022-08-15T19:16:33.556Z,4.93
2022-08-15T19:19:18.812Z,3.43
2022-08-15T19:21:48.524Z,2.90
2022-08-15T19:24:28.349Z,2.27
2022-08-15T19:27:15.249Z,3.07
2022-08-15T19:29:44.783Z,2.70
2022-08-15T19:32:31.337Z,4.10
2022-08-15T19:35:12.029Z,2.73
2022-08-15T19:38:13.609Z,2.87
2022-08-15T19:41:03.919Z,3.63
2022-08-15T19:44:27.054Z,3.40
2022-08-15T19:47:01.702Z,2.70
2022-08-15T19:50:05.947Z,4.13
2022-08-15T19:52:56.829Z,3.33
2022-08-15T19:55:42.400Z,2.57
2022-08-15T19:58:29.061Z,3.03
2022-08-15T20:01:10.434Z,3.13
2022-08-15T20:03:48.084Z,2.50
2022-08-15T20:06:34.945Z,2.77
2022-08-15T20:09:39.667Z,3.70
2022-08-15T20:12:31.592Z,2.27
2022-08-15T20:15:32.538Z,2.70
2022-08-15T20:18:28.646Z,4.10
2022-08-15T20:21:13.627Z,2.20
2022-08-15T20:24:03.316Z,3.33
2022-08-15T20:26:39.469Z,1.90
2022-08-15T20:29:24.160Z,3.13
2022-08-15T20:32:23.234Z,2.33
2022-08-15T20:35:17.139Z,4.13
2022-08-15T20:37:56.910Z,2.03
2022-08-15T20:40:54.638Z,2.87
2022-08-15T20:43:33.216Z,3.00
2022-08-15T20:46:16.753Z,4.20
2022-08-15T20:48:53.283Z,2.30
2022-08-15T20:52:00.915Z,2.63
2022-08-15T20:54:38.532Z,4.33
2022-08-15T20:57:09.914Z,4.50
2022-08-15T20:59:43.349Z,3.13
2022-08-15T21:02:43.288Z,2.17
2022-08-15T21:05:17.402Z,3.83
2022-08-15T21:07:57.904Z,4.17
2022-08-15T21:10:59.774Z,4.23
2022-08-15T21:13:38.942Z,2.70
2022-08-15T21:16:37.679Z,2.47
2022-08-15T21:19:37.093Z,4.13
2022-08-15T21:22:43.578Z,3.53
2022-08-15T21:25:42.112Z,3.97
2022-08-15T21:28:10.309Z,4.10
2022-08-15T21:31:01.291Z,5.27
2022-08-15T21:33:41.330Z,2.80
2022-08-15T21:36:34.932Z,3.37
2022-08-15T21:39:23.287Z,4.87
2022-08-15T21:41:54.333Z,3.50
2022-08-15T21:44:43.693Z,4.40
2022-08-15T21:47:34.197Z,3.43
2022-08-15T21:50:02.414Z,3.00
2022-08-15T21:52:36.096Z,3.50
2022-08-15T21:55:33.465Z,3.00
2022-08-15T21:58:21.180Z,4.30
2022-08-15T22:00:56.937Z,3.00
2022-08-15T22:03:39.834Z,5.63
2022-08-15T22:06:23.246Z,4.37
2022-08-15T22:08:55.343Z,3.13
2022-08-15T22:11:29.074Z,3.20
2022-08-15T22:13:57.686Z,3.07
2022-08-15T22:16:38.779Z,2.77
2022-08-15T22:19:10.684Z,3.57
2022-08-15T22:21:45.787Z,4.30
2022-08-15T22:24:17.338Z,2.97
2022-08-15T22:26:51.822Z,4.03
2022-08-15T22:29:31.565Z,6.00
2022-08-15T22:32:11.625Z,3.50
2022-08-15T22:34:51.463Z,3.40
2022-08-15T22:37:20.091Z,3.33
2022-08-15T22:39:47.882Z,3.90
2022-08-15T22:42:26.941Z,2.90
2022-08-15T22:44:53.852Z,3.57
2022-08-15T22:47:22.670Z,3.37
2022-08-15T22:49:55.236Z,5.00
2022-08-15T22:52:25.798Z,3.60
2022-08-15T22:54:52.765Z,3.17
2022-08-15T22:57:57.794Z,3.40
2022-08-15T23:00:16.243Z,3.47
2022-08-15T23:02:45.759Z,3.60
2022-08-15T23:05:25.278Z,3.33
2022-08-15T23:08:19.520Z,5.03
2022-08-15T23:10:54.819Z,2.63
2022-08-15T23:13:28.300Z,2.63
2022-08-15T23:16:32.851Z,4.43
2022-08-15T23:18:58.918Z,3.50
2022-08-15T23:21:28.429Z,3.57
2022-08-15T23:23:58.349Z,2.90
2022-08-15T23:26:32.537Z,3.73
2022-08-15T23:29:03.135Z,2.37
2022-08-15T23:31:48.521Z,4.03
2022-08-15T23:34:21.123Z,3.07
2022-08-15T23:37:06.779Z,4.27
2022-08-15T23:39:55.679Z,3.47
2022-08-15T23:42:27.836Z,4.17
2022-08-15T23:44:58.908Z,5.93
2022-08-15T23:47:27.641Z,4.20
2022-08-15T23:49:57.693Z,4.97
2022-08-15T23:52:29.623Z,3.73
2022-08-15T23:55:08.498Z,4.50
2022-08-15T23:57:36.607Z,3.87
